sensor_id;sensor_type;location;lat;lon;timestamp;temperature;humidity
1379;DHT22;683;48.738;9.226;2022-07-29T00:02:24;18.40;99.90
1379;DHT22;683;48.738;9.226;2022-07-29T00:04:53;18.40;99.90
1379;DHT22;683;48.738;9.226;2022-07-29T00:07:24;18.50;99.90
1379;DHT22;683;48.738;9.226;2022-07-29T00:09:51;18.50;99.90
1379;DHT22;683;48.738;9.226;2022-07-29T00:12:19;18.50;99.90
1379;DHT22;683;48.738;9.226;2022-07-29T00:14:47;18.60;99.90
1379;DHT22;683;48.738;9.226;2022-07-29T00:17:14;18.50;99.90
1379;DHT22;683;48.738;9.226;2022-07-29T00:19:43;18.50;99.90
1379;DHT22;683;48.738;9.226;2022-07-29T00:22:11;18.60;99.90
1379;DHT22;683;48.738;9.226;2022-07-29T00:24:38;18.50;99.90
1379;DHT22;683;48.738;9.226;2022-07-29T00:27:06;18.40;99.90
1379;DHT22;683;48.738;9.226;2022-07-29T00:29:33;18.30;99.90
1379;DHT22;683;48.738;9.226;2022-07-29T00:32:00;18.30;99.90
1379;DHT22;683;48.738;9.226;2022-07-29T00:34:28;18.20;99.90
1379;DHT22;683;48.738;9.226;2022-07-29T00:37:14;18.10;99.90
1379;DHT22;683;48.738;9.226;2022-07-29T00:39:41;18.00;99.90
1379;DHT22;683;48.738;9.226;2022-07-29T00:42:08;18.00;99.90
1379;DHT22;683;48.738;9.226;2022-07-29T00:44:37;17.90;99.90
1379;DHT22;683;48.738;9.226;2022-07-29T00:47:05;17.90;99.90
1379;DHT22;683;48.738;9.226;2022-07-29T00:49:33;17.80;99.90
1379;DHT22;683;48.738;9.226;2022-07-29T00:52:01;17.80;99.90
1379;DHT22;683;48.738;9.226;2022-07-29T00:54:30;17.80;99.90
1379;DHT22;683;48.738;9.226;2022-07-29T00:56:58;17.80;99.90
1379;DHT22;683;48.738;9.226;2022-07-29T00:59:26;17.80;99.90
1379;DHT22;683;48.738;9.226;2022-07-29T01:01:54;17.80;99.90
1379;DHT22;683;48.738;9.226;2022-07-29T01:04:22;17.80;99.90
1379;DHT22;683;48.738;9.226;2022-07-29T01:06:49;17.70;99.90
1379;DHT22;683;48.738;9.226;2022-07-29T01:09:18;17.70;99.90
1379;DHT22;683;48.738;9.226;2022-07-29T01:11:47;17.70;99.90
1379;DHT22;683;48.738;9.226;2022-07-29T01:14:15;17.80;99.90
1379;DHT22;683;48.738;9.226;2022-07-29T01:16:48;17.80;99.90
1379;DHT22;683;48.738;9.226;2022-07-29T01:19:29;17.80;99.90
1379;DHT22;683;48.738;9.226;2022-07-29T01:22:18;17.80;99.90
1379;DHT22;683;48.738;9.226;2022-07-29T01:28:07;17.70;99.90
1379;DHT22;683;48.738;9.226;2022-07-29T01:30:38;17.70;99.90
1379;DHT22;683;48.738;9.226;2022-07-29T01:33:11;17.60;99.90
1379;DHT22;683;48.738;9.226;2022-07-29T01:36:01;17.60;99.90
1379;DHT22;683;48.738;9.226;2022-07-29T01:38:30;17.60;99.90
1379;DHT22;683;48.738;9.226;2022-07-29T01:41:02;17.50;99.90
1379;DHT22;683;48.738;9.226;2022-07-29T01:43:36;17.50;99.90
1379;DHT22;683;48.738;9.226;2022-07-29T01:46:11;17.40;99.90
1379;DHT22;683;48.738;9.226;2022-07-29T01:48:42;17.40;99.90
1379;DHT22;683;48.738;9.226;2022-07-29T01:51:16;17.30;99.90
1379;DHT22;683;48.738;9.226;2022-07-29T01:53:50;17.40;99.90
1379;DHT22;683;48.738;9.226;2022-07-29T01:56:20;17.40;99.90
1379;DHT22;683;48.738;9.226;2022-07-29T01:58:49;17.30;99.90
1379;DHT22;683;48.738;9.226;2022-07-29T02:01:20;17.40;99.90
1379;DHT22;683;48.738;9.226;2022-07-29T02:03:50;17.30;99.90
1379;DHT22;683;48.738;9.226;2022-07-29T02:06:20;17.30;99.90
1379;DHT22;683;48.738;9.226;2022-07-29T02:08:49;17.30;99.90
1379;DHT22;683;48.738;9.226;2022-07-29T02:11:17;17.20;99.90
1379;DHT22;683;48.738;9.226;2022-07-29T02:13:45;17.20;99.90
1379;DHT22;683;48.738;9.226;2022-07-29T02:16:15;17.20;99.90
1379;DHT22;683;48.738;9.226;2022-07-29T02:18:47;17.10;99.90
1379;DHT22;683;48.738;9.226;2022-07-29T02:21:21;17.10;99.90
1379;DHT22;683;48.738;9.226;2022-07-29T02:23:50;17.10;99.90
1379;DHT22;683;48.738;9.226;2022-07-29T02:26:20;17.10;99.90
1379;DHT22;683;48.738;9.226;2022-07-29T02:28:50;17.00;99.90
1379;DHT22;683;48.738;9.226;2022-07-29T02:31:21;17.00;99.90
1379;DHT22;683;48.738;9.226;2022-07-29T02:33:50;17.00;99.90
1379;DHT22;683;48.738;9.226;2022-07-29T02:36:21;17.00;99.90
1379;DHT22;683;48.738;9.226;2022-07-29T02:38:50;17.00;99.90
1379;DHT22;683;48.738;9.226;2022-07-29T02:41:28;17.00;99.90
1379;DHT22;683;48.738;9.226;2022-07-29T02:43:57;17.00;99.90
1379;DHT22;683;48.738;9.226;2022-07-29T02:46:29;16.90;99.90
1379;DHT22;683;48.738;9.226;2022-07-29T02:49:04;16.90;99.90
1379;DHT22;683;48.738;9.226;2022-07-29T02:51:37;16.90;99.90
1379;DHT22;683;48.738;9.226;2022-07-29T02:54:07;16.90;99.90
1379;DHT22;683;48.738;9.226;2022-07-29T02:56:37;16.90;99.90
1379;DHT22;683;48.738;9.226;2022-07-29T02:59:09;16.80;99.90
1379;DHT22;683;48.738;9.226;2022-07-29T03:01:41;16.80;99.90
1379;DHT22;683;48.738;9.226;2022-07-29T03:04:12;16.80;99.90
1379;DHT22;683;48.738;9.226;2022-07-29T03:06:43;16.90;99.90
1379;DHT22;683;48.738;9.226;2022-07-29T03:09:12;16.90;99.90
1379;DHT22;683;48.738;9.226;2022-07-29T03:11:40;16.90;99.90
1379;DHT22;683;48.738;9.226;2022-07-29T03:14:08;16.80;99.90
1379;DHT22;683;48.738;9.226;2022-07-29T03:16:36;16.80;99.90
1379;DHT22;683;48.738;9.226;2022-07-29T03:19:04;16.80;99.90
1379;DHT22;683;48.738;9.226;2022-07-29T03:21:33;16.80;99.90
1379;DHT22;683;48.738;9.226;2022-07-29T03:24:01;16.80;99.90
1379;DHT22;683;48.738;9.226;2022-07-29T03:26:29;16.80;99.90
1379;DHT22;683;48.738;9.226;2022-07-29T03:28:56;16.80;99.90
1379;DHT22;683;48.738;9.226;2022-07-29T03:31:23;16.80;99.90
1379;DHT22;683;48.738;9.226;2022-07-29T03:33:51;16.80;99.90
1379;DHT22;683;48.738;9.226;2022-07-29T03:36:18;16.80;99.90
1379;DHT22;683;48.738;9.226;2022-07-29T03:38:47;16.80;99.90
1379;DHT22;683;48.738;9.226;2022-07-29T03:41:16;16.80;99.90
1379;DHT22;683;48.738;9.226;2022-07-29T03:43:46;16.80;99.90
1379;DHT22;683;48.738;9.226;2022-07-29T03:46:16;16.80;99.90
1379;DHT22;683;48.738;9.226;2022-07-29T03:48:48;16.80;99.90
1379;DHT22;683;48.738;9.226;2022-07-29T03:51:17;16.80;99.90
1379;DHT22;683;48.738;9.226;2022-07-29T03:53:46;17.00;99.90
1379;DHT22;683;48.738;9.226;2022-07-29T03:56:15;17.00;99.90
1379;DHT22;683;48.738;9.226;2022-07-29T03:58:44;17.00;99.90
1379;DHT22;683;48.738;9.226;2022-07-29T04:01:12;17.10;99.90
1379;DHT22;683;48.738;9.226;2022-07-29T04:03:39;17.10;99.90
1379;DHT22;683;48.738;9.226;2022-07-29T04:06:07;17.10;99.90
1379;DHT22;683;48.738;9.226;2022-07-29T04:08:34;17.00;99.90
1379;DHT22;683;48.738;9.226;2022-07-29T04:11:04;17.10;99.90
1379;DHT22;683;48.738;9.226;2022-07-29T04:13:32;16.90;99.90
1379;DHT22;683;48.738;9.226;2022-07-29T04:15:59;17.00;99.90
1379;DHT22;683;48.738;9.226;2022-07-29T04:18:27;16.90;99.90
1379;DHT22;683;48.738;9.226;2022-07-29T04:20:54;16.90;99.90
1379;DHT22;683;48.738;9.226;2022-07-29T04:23:22;16.90;99.90
1379;DHT22;683;48.738;9.226;2022-07-29T04:25:49;16.90;99.90
1379;DHT22;683;48.738;9.226;2022-07-29T04:28:19;16.80;99.90
1379;DHT22;683;48.738;9.226;2022-07-29T04:30:46;16.90;99.90
1379;DHT22;683;48.738;9.226;2022-07-29T04:33:14;16.90;99.90
1379;DHT22;683;48.738;9.226;2022-07-29T04:35:41;16.90;99.90
1379;DHT22;683;48.738;9.226;2022-07-29T04:38:08;16.90;99.90
1379;DHT22;683;48.738;9.226;2022-07-29T04:40:35;17.00;99.90
1379;DHT22;683;48.738;9.226;2022-07-29T04:43:03;17.00;99.90
1379;DHT22;683;48.738;9.226;2022-07-29T04:45:31;17.00;99.90
1379;DHT22;683;48.738;9.226;2022-07-29T04:47:59;17.10;99.90
1379;DHT22;683;48.738;9.226;2022-07-29T04:50:26;17.20;99.90
1379;DHT22;683;48.738;9.226;2022-07-29T04:52:53;17.30;99.90
1379;DHT22;683;48.738;9.226;2022-07-29T04:55:21;17.40;99.90
1379;DHT22;683;48.738;9.226;2022-07-29T04:57:48;17.50;99.90
1379;DHT22;683;48.738;9.226;2022-07-29T05:00:16;17.60;99.90
1379;DHT22;683;48.738;9.226;2022-07-29T05:02:44;17.70;99.90
1379;DHT22;683;48.738;9.226;2022-07-29T05:05:12;17.70;99.90
1379;DHT22;683;48.738;9.226;2022-07-29T05:07:39;17.80;99.90
1379;DHT22;683;48.738;9.226;2022-07-29T05:10:07;17.90;99.90
1379;DHT22;683;48.738;9.226;2022-07-29T05:12:34;18.10;99.90
1379;DHT22;683;48.738;9.226;2022-07-29T05:15:02;18.20;99.90
1379;DHT22;683;48.738;9.226;2022-07-29T05:17:29;18.20;99.90
1379;DHT22;683;48.738;9.226;2022-07-29T05:19:58;18.40;99.90
1379;DHT22;683;48.738;9.226;2022-07-29T05:22:25;18.50;99.90
1379;DHT22;683;48.738;9.226;2022-07-29T05:24:53;18.60;99.90
1379;DHT22;683;48.738;9.226;2022-07-29T05:27:20;18.90;99.90
1379;DHT22;683;48.738;9.226;2022-07-29T05:29:47;19.00;99.90
1379;DHT22;683;48.738;9.226;2022-07-29T05:32:15;19.20;99.90
1379;DHT22;683;48.738;9.226;2022-07-29T05:34:42;19.30;99.90
1379;DHT22;683;48.738;9.226;2022-07-29T05:37:11;19.50;99.90
1379;DHT22;683;48.738;9.226;2022-07-29T05:39:39;19.50;99.90
1379;DHT22;683;48.738;9.226;2022-07-29T05:42:09;19.70;99.90
1379;DHT22;683;48.738;9.226;2022-07-29T05:44:42;19.70;99.90
1379;DHT22;683;48.738;9.226;2022-07-29T05:47:14;19.60;99.90
1379;DHT22;683;48.738;9.226;2022-07-29T05:49:45;19.70;99.90
1379;DHT22;683;48.738;9.226;2022-07-29T05:52:14;19.80;99.90
1379;DHT22;683;48.738;9.226;2022-07-29T05:54:42;19.90;99.90
1379;DHT22;683;48.738;9.226;2022-07-29T05:57:15;20.00;99.90
1379;DHT22;683;48.738;9.226;2022-07-29T05:59:42;20.00;99.90
1379;DHT22;683;48.738;9.226;2022-07-29T06:02:10;19.90;99.90
1379;DHT22;683;48.738;9.226;2022-07-29T06:04:37;19.90;99.90
1379;DHT22;683;48.738;9.226;2022-07-29T06:07:04;20.00;99.90
1379;DHT22;683;48.738;9.226;2022-07-29T06:09:33;20.10;99.90
1379;DHT22;683;48.738;9.226;2022-07-29T06:12:01;20.20;99.90
1379;DHT22;683;48.738;9.226;2022-07-29T06:14:29;20.30;99.90
1379;DHT22;683;48.738;9.226;2022-07-29T06:16:56;20.50;99.90
1379;DHT22;683;48.738;9.226;2022-07-29T06:19:23;20.50;99.90
1379;DHT22;683;48.738;9.226;2022-07-29T06:21:51;20.60;99.90
1379;DHT22;683;48.738;9.226;2022-07-29T06:24:18;20.70;99.90
1379;DHT22;683;48.738;9.226;2022-07-29T06:26:46;21.00;99.90
1379;DHT22;683;48.738;9.226;2022-07-29T06:29:14;21.10;99.90
1379;DHT22;683;48.738;9.226;2022-07-29T06:31:42;21.30;99.90
1379;DHT22;683;48.738;9.226;2022-07-29T06:34:11;21.50;99.90
1379;DHT22;683;48.738;9.226;2022-07-29T06:36:38;21.80;99.90
1379;DHT22;683;48.738;9.226;2022-07-29T06:39:05;21.60;99.90
1379;DHT22;683;48.738;9.226;2022-07-29T06:41:33;21.80;99.90
1379;DHT22;683;48.738;9.226;2022-07-29T06:44:09;22.00;99.90
1379;DHT22;683;48.738;9.226;2022-07-29T06:46:37;22.10;99.90
1379;DHT22;683;48.738;9.226;2022-07-29T06:49:04;22.30;99.90
1379;DHT22;683;48.738;9.226;2022-07-29T06:51:31;22.30;99.90
1379;DHT22;683;48.738;9.226;2022-07-29T06:53:59;22.30;99.90
1379;DHT22;683;48.738;9.226;2022-07-29T06:56:27;22.40;99.90
1379;DHT22;683;48.738;9.226;2022-07-29T06:58:55;22.40;99.90
1379;DHT22;683;48.738;9.226;2022-07-29T07:01:24;22.40;99.90
1379;DHT22;683;48.738;9.226;2022-07-29T07:03:51;22.10;99.90
1379;DHT22;683;48.738;9.226;2022-07-29T07:06:18;22.30;99.90
1379;DHT22;683;48.738;9.226;2022-07-29T07:08:46;22.30;99.90
1379;DHT22;683;48.738;9.226;2022-07-29T07:11:13;22.60;99.90
1379;DHT22;683;48.738;9.226;2022-07-29T07:13:40;22.70;99.90
1379;DHT22;683;48.738;9.226;2022-07-29T07:16:08;22.80;99.90
1379;DHT22;683;48.738;9.226;2022-07-29T07:18:36;22.90;99.90
1379;DHT22;683;48.738;9.226;2022-07-29T07:21:04;23.20;99.90
1379;DHT22;683;48.738;9.226;2022-07-29T07:23:31;23.20;99.90
1379;DHT22;683;48.738;9.226;2022-07-29T07:25:58;23.40;99.90
1379;DHT22;683;48.738;9.226;2022-07-29T07:28:26;23.50;99.90
1379;DHT22;683;48.738;9.226;2022-07-29T07:30:53;23.60;99.90
1379;DHT22;683;48.738;9.226;2022-07-29T07:33:21;23.80;99.90
1379;DHT22;683;48.738;9.226;2022-07-29T07:35:49;23.80;99.90
1379;DHT22;683;48.738;9.226;2022-07-29T07:38:17;23.60;99.90
1379;DHT22;683;48.738;9.226;2022-07-29T07:40:44;22.80;99.90
1379;DHT22;683;48.738;9.226;2022-07-29T07:43:12;22.60;99.90
1379;DHT22;683;48.738;9.226;2022-07-29T07:45:39;22.70;99.90
1379;DHT22;683;48.738;9.226;2022-07-29T07:48:07;22.60;99.90
1379;DHT22;683;48.738;9.226;2022-07-29T07:50:36;22.90;99.90
1379;DHT22;683;48.738;9.226;2022-07-29T07:53:04;23.00;99.90
1379;DHT22;683;48.738;9.226;2022-07-29T07:55:32;23.20;99.90
1379;DHT22;683;48.738;9.226;2022-07-29T07:57:59;23.60;99.90
1379;DHT22;683;48.738;9.226;2022-07-29T08:00:26;23.70;99.90
1379;DHT22;683;48.738;9.226;2022-07-29T08:02:54;23.80;99.90
1379;DHT22;683;48.738;9.226;2022-07-29T08:05:21;24.00;99.90
1379;DHT22;683;48.738;9.226;2022-07-29T08:07:49;24.00;99.90
1379;DHT22;683;48.738;9.226;2022-07-29T08:10:19;24.00;99.80
1379;DHT22;683;48.738;9.226;2022-07-29T08:13:02;23.60;99.40
1379;DHT22;683;48.738;9.226;2022-07-29T08:15:29;23.60;99.50
1379;DHT22;683;48.738;9.226;2022-07-29T08:17:56;23.70;99.80
1379;DHT22;683;48.738;9.226;2022-07-29T08:20:24;23.70;99.50
1379;DHT22;683;48.738;9.226;2022-07-29T08:22:52;23.80;99.90
1379;DHT22;683;48.738;9.226;2022-07-29T08:25:21;24.10;99.70
1379;DHT22;683;48.738;9.226;2022-07-29T08:27:48;24.20;99.40
1379;DHT22;683;48.738;9.226;2022-07-29T08:30:16;24.30;99.00
1379;DHT22;683;48.738;9.226;2022-07-29T08:32:43;24.60;99.00
1379;DHT22;683;48.738;9.226;2022-07-29T08:35:10;24.90;98.40
1379;DHT22;683;48.738;9.226;2022-07-29T08:37:38;25.00;97.90
1379;DHT22;683;48.738;9.226;2022-07-29T08:40:06;25.00;97.40
1379;DHT22;683;48.738;9.226;2022-07-29T08:42:35;25.10;97.60
1379;DHT22;683;48.738;9.226;2022-07-29T08:45:04;25.20;97.50
1379;DHT22;683;48.738;9.226;2022-07-29T08:47:35;25.40;97.50
1379;DHT22;683;48.738;9.226;2022-07-29T08:50:06;25.40;97.00
1379;DHT22;683;48.738;9.226;2022-07-29T08:52:37;25.30;97.00
1379;DHT22;683;48.738;9.226;2022-07-29T08:55:06;25.30;96.60
1379;DHT22;683;48.738;9.226;2022-07-29T08:57:35;25.30;95.60
1379;DHT22;683;48.738;9.226;2022-07-29T09:00:05;25.40;96.80
1379;DHT22;683;48.738;9.226;2022-07-29T09:02:39;25.40;95.40
1379;DHT22;683;48.738;9.226;2022-07-29T09:05:07;25.50;95.90
1379;DHT22;683;48.738;9.226;2022-07-29T09:07:35;25.40;95.60
1379;DHT22;683;48.738;9.226;2022-07-29T09:10:04;25.40;95.80
1379;DHT22;683;48.738;9.226;2022-07-29T09:12:32;25.20;96.70
1379;DHT22;683;48.738;9.226;2022-07-29T09:15:00;25.20;96.20
1379;DHT22;683;48.738;9.226;2022-07-29T09:17:40;25.30;95.90
1379;DHT22;683;48.738;9.226;2022-07-29T09:20:09;25.60;95.40
1379;DHT22;683;48.738;9.226;2022-07-29T09:22:37;25.60;94.70
1379;DHT22;683;48.738;9.226;2022-07-29T09:25:05;25.60;94.40
1379;DHT22;683;48.738;9.226;2022-07-29T09:27:33;25.90;95.10
1379;DHT22;683;48.738;9.226;2022-07-29T09:30:03;26.30;94.80
1379;DHT22;683;48.738;9.226;2022-07-29T09:32:32;26.60;93.50
1379;DHT22;683;48.738;9.226;2022-07-29T09:35:17;26.90;92.70
1379;DHT22;683;48.738;9.226;2022-07-29T09:37:45;27.20;91.30
1379;DHT22;683;48.738;9.226;2022-07-29T09:40:14;26.50;91.00
1379;DHT22;683;48.738;9.226;2022-07-29T09:42:44;26.80;92.00
1379;DHT22;683;48.738;9.226;2022-07-29T09:45:27;26.90;91.70
1379;DHT22;683;48.738;9.226;2022-07-29T09:47:54;27.30;92.50
1379;DHT22;683;48.738;9.226;2022-07-29T09:50:33;27.60;91.30
1379;DHT22;683;48.738;9.226;2022-07-29T09:53:01;27.70;91.30
1379;DHT22;683;48.738;9.226;2022-07-29T09:55:28;28.00;90.30
1379;DHT22;683;48.738;9.226;2022-07-29T09:58:15;28.10;90.70
1379;DHT22;683;48.738;9.226;2022-07-29T10:00:46;28.40;90.00
1379;DHT22;683;48.738;9.226;2022-07-29T10:03:14;28.60;86.90
1379;DHT22;683;48.738;9.226;2022-07-29T10:05:42;28.30;87.30
1379;DHT22;683;48.738;9.226;2022-07-29T10:08:10;28.60;89.20
1379;DHT22;683;48.738;9.226;2022-07-29T10:10:39;29.20;87.30
1379;DHT22;683;48.738;9.226;2022-07-29T10:13:09;29.40;85.30
1379;DHT22;683;48.738;9.226;2022-07-29T10:15:38;30.00;84.10
1379;DHT22;683;48.738;9.226;2022-07-29T10:18:08;30.20;81.80
1379;DHT22;683;48.738;9.226;2022-07-29T10:20:36;30.40;79.70
1379;DHT22;683;48.738;9.226;2022-07-29T10:23:04;30.00;80.40
1379;DHT22;683;48.738;9.226;2022-07-29T10:25:31;29.70;78.50
1379;DHT22;683;48.738;9.226;2022-07-29T10:27:59;29.50;79.60
1379;DHT22;683;48.738;9.226;2022-07-29T10:30:26;29.60;80.40
1379;DHT22;683;48.738;9.226;2022-07-29T10:33:10;29.40;78.70
1379;DHT22;683;48.738;9.226;2022-07-29T10:36:15;29.30;79.70
1379;DHT22;683;48.738;9.226;2022-07-29T10:38:50;28.90;79.80
1379;DHT22;683;48.738;9.226;2022-07-29T10:41:43;28.30;82.20
1379;DHT22;683;48.738;9.226;2022-07-29T10:44:15;28.00;82.90
1379;DHT22;683;48.738;9.226;2022-07-29T10:46:43;27.60;83.50
1379;DHT22;683;48.738;9.226;2022-07-29T10:49:13;27.30;81.90
1379;DHT22;683;48.738;9.226;2022-07-29T10:52:02;27.10;84.30
1379;DHT22;683;48.738;9.226;2022-07-29T10:54:40;27.00;85.20
1379;DHT22;683;48.738;9.226;2022-07-29T10:57:20;26.70;86.50
1379;DHT22;683;48.738;9.226;2022-07-29T10:59:48;26.20;88.50
1379;DHT22;683;48.738;9.226;2022-07-29T11:02:41;25.90;87.70
1379;DHT22;683;48.738;9.226;2022-07-29T11:05:11;25.40;89.20
1379;DHT22;683;48.738;9.226;2022-07-29T11:07:40;25.10;89.70
1379;DHT22;683;48.738;9.226;2022-07-29T11:10:27;24.20;91.40
1379;DHT22;683;48.738;9.226;2022-07-29T11:12:54;23.00;90.40
1379;DHT22;683;48.738;9.226;2022-07-29T11:15:22;22.10;90.20
1379;DHT22;683;48.738;9.226;2022-07-29T11:18:08;21.20;97.40
1379;DHT22;683;48.738;9.226;2022-07-29T11:20:39;19.60;99.90
1379;DHT22;683;48.738;9.226;2022-07-29T11:23:26;19.10;99.90
1379;DHT22;683;48.738;9.226;2022-07-29T11:26:16;18.40;99.90
1379;DHT22;683;48.738;9.226;2022-07-29T11:28:52;15.90;99.90
1379;DHT22;683;48.738;9.226;2022-07-29T11:31:37;15.80;99.90
1379;DHT22;683;48.738;9.226;2022-07-29T11:34:18;15.80;99.90
1379;DHT22;683;48.738;9.226;2022-07-29T11:37:15;16.00;99.90
1379;DHT22;683;48.738;9.226;2022-07-29T11:39:44;16.20;99.90
1379;DHT22;683;48.738;9.226;2022-07-29T11:42:44;16.20;99.90
1379;DHT22;683;48.738;9.226;2022-07-29T11:45:14;16.20;99.90
1379;DHT22;683;48.738;9.226;2022-07-29T11:47:50;16.40;99.90
1379;DHT22;683;48.738;9.226;2022-07-29T11:50:30;16.50;99.90
1379;DHT22;683;48.738;9.226;2022-07-29T11:53:01;16.60;99.90
1379;DHT22;683;48.738;9.226;2022-07-29T11:55:29;16.70;99.90
1379;DHT22;683;48.738;9.226;2022-07-29T11:57:59;16.80;99.90
1379;DHT22;683;48.738;9.226;2022-07-29T12:00:29;16.70;99.90
1379;DHT22;683;48.738;9.226;2022-07-29T12:02:58;16.80;99.90
1379;DHT22;683;48.738;9.226;2022-07-29T12:05:37;17.00;99.90
1379;DHT22;683;48.738;9.226;2022-07-29T12:08:12;17.20;99.90
1379;DHT22;683;48.738;9.226;2022-07-29T12:10:41;17.30;99.90
1379;DHT22;683;48.738;9.226;2022-07-29T12:13:09;17.50;99.90
1379;DHT22;683;48.738;9.226;2022-07-29T12:15:37;17.60;99.90
1379;DHT22;683;48.738;9.226;2022-07-29T12:18:11;17.70;99.90
1379;DHT22;683;48.738;9.226;2022-07-29T12:20:39;17.70;99.90
1379;DHT22;683;48.738;9.226;2022-07-29T12:23:07;17.70;99.90
1379;DHT22;683;48.738;9.226;2022-07-29T12:25:36;17.90;99.90
1379;DHT22;683;48.738;9.226;2022-07-29T12:28:05;18.10;99.90
1379;DHT22;683;48.738;9.226;2022-07-29T12:30:38;18.20;99.90
1379;DHT22;683;48.738;9.226;2022-07-29T12:33:14;18.40;99.90
1379;DHT22;683;48.738;9.226;2022-07-29T12:35:44;18.60;99.90
1379;DHT22;683;48.738;9.226;2022-07-29T12:38:12;18.70;99.90
1379;DHT22;683;48.738;9.226;2022-07-29T12:40:42;18.80;99.90
1379;DHT22;683;48.738;9.226;2022-07-29T12:43:12;18.80;99.90
1379;DHT22;683;48.738;9.226;2022-07-29T12:45:43;18.80;99.90
1379;DHT22;683;48.738;9.226;2022-07-29T12:48:11;18.50;99.90
1379;DHT22;683;48.738;9.226;2022-07-29T12:50:56;18.60;99.90
1379;DHT22;683;48.738;9.226;2022-07-29T12:53:24;18.70;99.90
1379;DHT22;683;48.738;9.226;2022-07-29T12:55:55;18.60;99.90
1379;DHT22;683;48.738;9.226;2022-07-29T12:58:27;18.40;99.90
1379;DHT22;683;48.738;9.226;2022-07-29T13:01:10;18.60;99.90
1379;DHT22;683;48.738;9.226;2022-07-29T13:03:45;18.70;99.90
1379;DHT22;683;48.738;9.226;2022-07-29T13:06:32;19.00;99.90
1379;DHT22;683;48.738;9.226;2022-07-29T13:09:02;19.00;99.90
1379;DHT22;683;48.738;9.226;2022-07-29T13:11:32;19.30;99.90
1379;DHT22;683;48.738;9.226;2022-07-29T13:14:00;19.50;99.90
1379;DHT22;683;48.738;9.226;2022-07-29T13:16:27;19.40;99.90
1379;DHT22;683;48.738;9.226;2022-07-29T13:19:09;19.30;99.90
1379;DHT22;683;48.738;9.226;2022-07-29T13:21:37;19.10;99.90
1379;DHT22;683;48.738;9.226;2022-07-29T13:24:06;19.10;99.90
1379;DHT22;683;48.738;9.226;2022-07-29T13:26:40;18.70;99.90
1379;DHT22;683;48.738;9.226;2022-07-29T13:29:07;18.60;99.90
1379;DHT22;683;48.738;9.226;2022-07-29T13:31:35;18.60;99.90
1379;DHT22;683;48.738;9.226;2022-07-29T13:34:03;18.60;99.90
1379;DHT22;683;48.738;9.226;2022-07-29T13:36:30;18.60;99.90
1379;DHT22;683;48.738;9.226;2022-07-29T13:38:57;18.70;99.90
1379;DHT22;683;48.738;9.226;2022-07-29T13:41:27;18.90;99.90
1379;DHT22;683;48.738;9.226;2022-07-29T13:43:58;18.90;99.90
1379;DHT22;683;48.738;9.226;2022-07-29T13:46:26;19.10;99.90
1379;DHT22;683;48.738;9.226;2022-07-29T13:48:53;19.00;99.90
1379;DHT22;683;48.738;9.226;2022-07-29T13:51:20;19.20;99.90
1379;DHT22;683;48.738;9.226;2022-07-29T13:53:48;19.40;99.90
1379;DHT22;683;48.738;9.226;2022-07-29T13:56:15;19.70;99.90
1379;DHT22;683;48.738;9.226;2022-07-29T13:58:42;20.10;99.90
1379;DHT22;683;48.738;9.226;2022-07-29T14:01:11;20.40;99.90
1379;DHT22;683;48.738;9.226;2022-07-29T14:03:38;20.90;99.90
1379;DHT22;683;48.738;9.226;2022-07-29T14:06:07;21.20;99.90
1379;DHT22;683;48.738;9.226;2022-07-29T14:08:34;21.40;99.90
1379;DHT22;683;48.738;9.226;2022-07-29T14:11:01;21.20;99.90
1379;DHT22;683;48.738;9.226;2022-07-29T14:13:29;21.20;99.90
1379;DHT22;683;48.738;9.226;2022-07-29T14:15:56;21.10;99.90
1379;DHT22;683;48.738;9.226;2022-07-29T14:18:25;21.30;99.90
1379;DHT22;683;48.738;9.226;2022-07-29T14:20:52;21.70;99.90
1379;DHT22;683;48.738;9.226;2022-07-29T14:23:20;21.80;99.90
1379;DHT22;683;48.738;9.226;2022-07-29T14:25:47;21.60;99.90
1379;DHT22;683;48.738;9.226;2022-07-29T14:28:14;22.00;99.90
1379;DHT22;683;48.738;9.226;2022-07-29T14:30:41;22.20;99.90
1379;DHT22;683;48.738;9.226;2022-07-29T14:33:09;21.90;99.90
1379;DHT22;683;48.738;9.226;2022-07-29T14:35:37;22.00;99.90
1379;DHT22;683;48.738;9.226;2022-07-29T14:38:05;21.90;99.90
1379;DHT22;683;48.738;9.226;2022-07-29T14:40:33;22.30;99.90
1379;DHT22;683;48.738;9.226;2022-07-29T14:43:00;22.50;99.90
1379;DHT22;683;48.738;9.226;2022-07-29T14:45:28;22.30;99.90
1379;DHT22;683;48.738;9.226;2022-07-29T14:47:56;22.00;99.90
1379;DHT22;683;48.738;9.226;2022-07-29T14:50:23;22.40;99.90
1379;DHT22;683;48.738;9.226;2022-07-29T14:52:53;22.50;99.90
1379;DHT22;683;48.738;9.226;2022-07-29T14:55:21;22.80;99.90
1379;DHT22;683;48.738;9.226;2022-07-29T14:57:48;23.00;99.90
1379;DHT22;683;48.738;9.226;2022-07-29T15:00:17;23.10;99.90
1379;DHT22;683;48.738;9.226;2022-07-29T15:02:45;23.20;99.90
1379;DHT22;683;48.738;9.226;2022-07-29T15:05:12;23.10;99.90
1379;DHT22;683;48.738;9.226;2022-07-29T15:07:40;22.80;99.90
1379;DHT22;683;48.738;9.226;2022-07-29T15:10:08;22.60;99.90
1379;DHT22;683;48.738;9.226;2022-07-29T15:12:36;22.10;99.90
1379;DHT22;683;48.738;9.226;2022-07-29T15:15:03;22.70;99.90
1379;DHT22;683;48.738;9.226;2022-07-29T15:17:31;22.90;99.90
1379;DHT22;683;48.738;9.226;2022-07-29T15:19:58;23.00;99.90
1379;DHT22;683;48.738;9.226;2022-07-29T15:22:25;23.20;99.90
1379;DHT22;683;48.738;9.226;2022-07-29T15:24:53;23.30;99.90
1379;DHT22;683;48.738;9.226;2022-07-29T15:27:22;22.80;99.90
1379;DHT22;683;48.738;9.226;2022-07-29T15:29:49;22.60;99.90
1379;DHT22;683;48.738;9.226;2022-07-29T15:32:16;22.40;99.90
1379;DHT22;683;48.738;9.226;2022-07-29T15:34:43;22.10;99.90
1379;DHT22;683;48.738;9.226;2022-07-29T15:37:11;21.90;99.90
1379;DHT22;683;48.738;9.226;2022-07-29T15:39:38;22.00;99.90
1379;DHT22;683;48.738;9.226;2022-07-29T15:42:05;21.90;99.90
1379;DHT22;683;48.738;9.226;2022-07-29T15:44:34;22.00;99.90
1379;DHT22;683;48.738;9.226;2022-07-29T15:47:02;22.10;99.90
1379;DHT22;683;48.738;9.226;2022-07-29T15:49:28;22.10;99.90
1379;DHT22;683;48.738;9.226;2022-07-29T15:51:58;22.20;99.90
1379;DHT22;683;48.738;9.226;2022-07-29T15:54:26;22.20;99.90
1379;DHT22;683;48.738;9.226;2022-07-29T15:56:53;22.20;99.90
1379;DHT22;683;48.738;9.226;2022-07-29T15:59:21;22.50;99.90
1379;DHT22;683;48.738;9.226;2022-07-29T16:01:50;22.30;99.90
1379;DHT22;683;48.738;9.226;2022-07-29T16:04:18;22.50;99.90
1379;DHT22;683;48.738;9.226;2022-07-29T16:06:46;22.70;99.90
1379;DHT22;683;48.738;9.226;2022-07-29T16:09:14;22.70;99.90
1379;DHT22;683;48.738;9.226;2022-07-29T16:11:42;22.80;99.90
1379;DHT22;683;48.738;9.226;2022-07-29T16:14:09;22.70;99.90
1379;DHT22;683;48.738;9.226;2022-07-29T16:16:37;22.50;99.90
1379;DHT22;683;48.738;9.226;2022-07-29T16:19:06;22.10;99.90
1379;DHT22;683;48.738;9.226;2022-07-29T16:21:36;22.00;99.90
1379;DHT22;683;48.738;9.226;2022-07-29T16:24:05;22.20;99.90
1379;DHT22;683;48.738;9.226;2022-07-29T16:26:32;22.30;99.90
1379;DHT22;683;48.738;9.226;2022-07-29T16:29:00;22.20;99.90
1379;DHT22;683;48.738;9.226;2022-07-29T16:31:27;22.30;99.90
1379;DHT22;683;48.738;9.226;2022-07-29T16:33:55;22.30;99.90
1379;DHT22;683;48.738;9.226;2022-07-29T16:36:24;22.40;99.90
1379;DHT22;683;48.738;9.226;2022-07-29T16:38:51;22.40;99.90